Humidity-temperature Sensor

Selected Measurement Type: Relative Humidity

 
Relative Humidity [%]     6 entries per hour
Showing data from 6/2/2023 (00:00:00 Z) to 5/30/2023 (00:01:00 Z)
Previous Next [ Day | 3-Days | 7-Days ]
First Last
Prev [ Day | 3-Days | 7-Days ] Next
First Last

Start Time:     :
End Time:     :     
Time (in GMT) :00 :50 :40 :30 :20 :10
Previous Next [ Day | 3-Days | 7-Days ]
First Last
Prev [ Day | 3-Days | 7-Days ] Next
First Last


123 => good data
MM => data is determined as missing
-- => data not received/configured
Back to Top Back to Top
6/2/2023 00:00 to 23:10 94.96 93.83 91.87 93.58 97.38 97.86
6/1/2023 23:00 to 22:10 95.92 93.29 89.22 88.57 88.24 88.28
6/1/2023 22:00 to 21:10 87.61 86.94 88.78 89.22 88.74 87.09
6/1/2023 21:00 to 20:10 84.69 85.32 86.26 92.12 98.38 99.47
6/1/2023 20:00 to 19:10 93.44 96.19 96.80 97.32 93.58 93.88
6/1/2023 19:00 to 18:10 95.29 95.86 97.80 94.67 92.02 91.41
6/1/2023 18:00 to 17:10 91.68 91.79 90.87 90.79 90.08 89.68
6/1/2023 17:00 to 16:10 90.37 91.85 91.43 91.56 91.06 90.62
6/1/2023 16:00 to 15:10 90.08 90.74 91.85 90.81 89.72 88.53
6/1/2023 15:00 to 14:10 88.28 88.66 89.99 92.58 94.04 97.53
6/1/2023 14:00 to 13:10 98.36 98.36 97.57 96.69 95.38 94.69
6/1/2023 13:00 to 12:10 90.12 88.32 87.95 88.57 87.88 88.76
6/1/2023 12:00 to 11:10 88.95 88.13 86.71 87.07 87.01 87.65
6/1/2023 11:00 to 10:10 86.92 87.07 85.25 85.71 86.40 87.59
6/1/2023 10:00 to 9:10 89.47 89.60 89.70 88.05 90.93 90.74
6/1/2023 09:00 to 8:10 91.33 89.91 88.59 88.34 87.86 88.45
6/1/2023 08:00 to 7:10 90.58 89.57 89.35 89.72 88.80 89.68
6/1/2023 07:00 to 6:10 88.68 90.01 91.54 90.05 89.83 90.62
6/1/2023 06:00 to 5:10 90.28 90.45 90.14 90.87 91.24 91.27
6/1/2023 05:00 to 4:10 89.14 88.76 88.78 88.72 88.74 88.57
6/1/2023 04:00 to 3:10 88.47 87.97 87.47 87.42 86.92 87.61
6/1/2023 03:00 to 2:10 89.83 91.85 91.64 90.47 89.30 89.01
6/1/2023 02:00 to 1:10 89.12 89.60 89.07 87.84 87.70 88.18
6/1/2023 01:00 to 0:10 87.76 88.82 89.66 89.30 90.03 90.10
6/1/2023 00:00 to 23:10 90.14 90.41 90.03 90.03 89.68 89.99
5/31/2023 23:00 to 22:10 89.99 90.03 89.95 89.68 88.70 88.47
5/31/2023 22:00 to 21:10 87.55 88.91 87.57 87.65 87.07 87.36
5/31/2023 21:00 to 20:10 86.42 86.84 87.36 85.78 86.21 85.40
5/31/2023 20:00 to 19:10 86.57 86.76 85.52 85.71 86.97 87.32
5/31/2023 19:00 to 18:10 86.88 86.78 87.22 86.55 87.99 87.61
5/31/2023 18:00 to 17:10 87.36 87.74 87.05 87.76 87.57 85.71
5/31/2023 17:00 to 16:10 86.42 86.82 88.05 88.09 88.30 88.72
5/31/2023 16:00 to 15:10 87.30 87.38 88.30 88.84 91.06 92.16
5/31/2023 15:00 to 14:10 91.62 91.98 92.18 91.14 91.60 90.24
5/31/2023 14:00 to 13:10 90.35 92.91 89.05 89.72 90.24 90.97
5/31/2023 13:00 to 12:10 88.93 87.93 88.84 88.43 90.43 89.41
5/31/2023 12:00 to 11:10 88.72 90.39 89.16 90.91 89.41 90.05
5/31/2023 11:00 to 10:10 90.49 91.70 92.48 90.83 90.72 91.83
5/31/2023 10:00 to 9:10 91.14 90.95 90.41 90.49 89.80 90.74
5/31/2023 09:00 to 8:10 90.58 91.52 92.75 93.67 93.75 93.40
5/31/2023 08:00 to 7:10 92.12 93.19 92.73 92.94 94.67 93.33
5/31/2023 07:00 to 6:10 89.66 91.22 93.42 94.36 96.65 97.99
5/31/2023 06:00 to 5:10 97.40 95.92 95.80 95.84 95.19 94.71
5/31/2023 05:00 to 4:10 94.59 96.26 97.05 97.55 95.65 87.40
5/31/2023 04:00 to 3:10 87.76 85.25 85.67 89.26 94.08 97.26
5/31/2023 03:00 to 2:10 96.94 95.61 92.85 90.03 89.64 90.47
5/31/2023 02:00 to 1:10 90.16 93.46 90.43 89.70 90.20 90.47
5/31/2023 01:00 to 0:10 91.64 91.41 88.01 88.53 88.51 88.47
5/31/2023 00:00 to 23:10 89.43 90.93 91.52 91.02 89.83 91.41
5/30/2023 23:00 to 22:10 93.90 94.56 92.35 87.28 87.17 85.61
5/30/2023 22:00 to 21:10 85.57 85.71 86.53 89.47 89.74 89.89
5/30/2023 21:00 to 20:10 87.36 90.54 88.97 90.95 87.22 86.65
5/30/2023 20:00 to 19:10 87.74 87.45 85.42 86.71 86.26 86.82
5/30/2023 19:00 to 18:10 85.71 86.19 86.13 86.30 87.38 87.95
5/30/2023 18:00 to 17:10 88.57 88.07 87.51 87.11 88.16 89.49
5/30/2023 17:00 to 16:10 91.89 92.46 93.69 91.35 91.58 92.91
5/30/2023 16:00 to 15:10 92.29 92.23 89.95 90.60 91.89 91.35
5/30/2023 15:00 to 14:10 89.26 88.95 88.13 88.72 87.24 87.59
5/30/2023 14:00 to 13:10 88.32 89.99 88.95 87.59 88.28 89.55
5/30/2023 13:00 to 12:10 90.62 90.05 90.72 89.62 88.66 90.22
5/30/2023 12:00 to 11:10 88.59 88.43 88.20 87.93 87.40 87.99
5/30/2023 11:00 to 10:10 87.13 87.95 88.16 88.36 87.74 87.76
5/30/2023 10:00 to 9:10 88.18 88.24 86.90 87.26 87.40 88.24
5/30/2023 09:00 to 8:10 87.74 88.20 87.70 87.42 87.38 87.36
5/30/2023 08:00 to 7:10 87.74 86.03 85.69 88.43 87.20 86.38
5/30/2023 07:00 to 6:10 87.17 86.03 87.70 87.22 87.82 88.13
5/30/2023 06:00 to 5:10 87.51 87.30 87.47 87.57 86.84 87.30
5/30/2023 05:00 to 4:10 86.44 86.57 85.67 84.54 84.67 84.25
5/30/2023 04:00 to 3:10 83.83 86.19 86.19 86.30 86.46 85.86
5/30/2023 03:00 to 2:10 86.15 86.23 86.67 87.13 86.59 86.90
5/30/2023 02:00 to 1:10 86.78 86.78 85.80 86.23 85.92 85.69
5/30/2023 01:00 to 0:10 85.86 87.03 86.30 86.55 87.53 89.78